Time;durP1;ratioP1;P1;durP2;ratioP2;P2;SDS_P1;SDS_P2;PMS_P1;PMS_P2;Temp;Humidity;BMP_temperature;BMP_pressure;BME280_temperature;BME280_humidity;BME280_pressure;Samples;Min_cycle;Max_cycle;Signal;HPM_P1;HPM_P2
2022/03/09 00:00:13;;;;;;;;;31.67;29.33;;;;;6.16;45.38;101630.31;5077148;27;45454;-75
2022/03/09 00:02:38;;;;;;;;;38.00;31.67;;;;;6.19;45.24;101627.72;5077432;27;45305;-74
2022/03/09 00:05:04;;;;;;;;;45.67;36.67;;;;;6.04;44.69;101606.66;5077741;28;45477;-75
2022/03/09 00:07:30;;;;;;;;;37.67;31.00;;;;;6.15;44.97;101620.72;5076886;27;46753;-75
2022/03/09 00:09:55;;;;;;;;;31.67;26.33;;;;;6.13;45.07;101621.56;5078027;27;45290;-75
2022/03/09 00:12:21;;;;;;;;;47.00;37.67;;;;;6.18;44.53;101620.75;5078225;27;45359;-75
2022/03/09 00:14:46;;;;;;;;;33.33;29.00;;;;;6.15;44.78;101619.84;5078240;27;45241;-75
2022/03/09 00:17:12;;;;;;;;;49.00;29.67;;;;;6.15;44.65;101618.09;5077841;27;46327;-75
2022/03/09 00:19:37;;;;;;;;;39.33;30.67;;;;;6.13;44.54;101626.78;5078082;27;45305;-75
2022/03/09 00:22:03;;;;;;;;;40.00;32.67;;;;;6.08;44.43;101625.03;5078191;27;45499;-75
2022/03/09 00:24:29;;;;;;;;;41.33;29.67;;;;;6.12;44.57;101631.16;5077370;27;45444;-74
2022/03/09 00:26:54;;;;;;;;;42.67;35.67;;;;;6.02;44.57;101616.22;5077250;28;45747;-75
2022/03/09 00:29:20;;;;;;;;;25.33;22.33;;;;;6.13;44.35;101626.78;5077536;28;45403;-75
2022/03/09 00:31:45;;;;;;;;;46.00;36.67;;;;;6.02;44.24;101606.63;5078080;27;45339;-74
2022/03/09 00:34:10;;;;;;;;;41.33;34.00;;;;;6.06;43.97;101612.78;5078022;27;45442;-75
2022/03/09 00:36:36;;;;;;;;;44.67;35.33;;;;;5.95;44.91;101602.19;5077787;27;45411;-75
2022/03/09 00:39:02;;;;;;;;;43.00;29.00;;;;;5.99;44.99;101624.03;5077770;27;45498;-75
2022/03/09 00:41:28;;;;;;;;;38.33;35.33;;;;;5.97;44.84;101628.31;5077685;28;45261;-75
2022/03/09 00:43:53;;;;;;;;;45.67;33.67;;;;;5.80;44.91;101610.75;5077720;27;45280;-75
2022/03/09 00:46:18;;;;;;;;;43.00;35.00;;;;;5.86;45.36;101634.31;5077249;27;45468;-75
2022/03/09 00:48:44;;;;;;;;;47.33;34.00;;;;;5.72;45.41;101612.38;5077718;27;45221;-75
2022/03/09 00:51:09;;;;;;;;;37.00;27.67;;;;;5.78;45.27;101622.94;5077665;27;45374;-76
2022/03/09 00:53:35;;;;;;;;;38.00;29.67;;;;;5.72;45.29;101604.53;5076504;28;45446;-74
2022/03/09 00:56:00;;;;;;;;;36.67;34.00;;;;;5.73;45.18;101612.41;5077568;27;45533;-75
2022/03/09 00:58:25;;;;;;;;;46.33;36.00;;;;;5.72;45.28;101601.94;5077570;27;45201;-75
2022/03/09 01:00:51;;;;;;;;;47.67;37.33;;;;;5.84;45.43;101628.22;5077900;27;45265;-75
2022/03/09 01:03:17;;;;;;;;;49.67;35.00;;;;;5.67;45.55;101601.88;5077712;28;45237;-75
2022/03/09 01:05:43;;;;;;;;;43.33;38.00;;;;;5.83;45.12;101631.69;5077268;27;46444;-75
2022/03/09 01:08:08;;;;;;;;;38.67;32.33;;;;;5.75;45.18;101612.41;5077563;27;45425;-74
2022/03/09 01:10:34;;;;;;;;;32.33;28.33;;;;;5.77;45.29;101618.56;5077399;27;45691;-75
2022/03/09 01:13:00;;;;;;;;;36.67;31.33;;;;;5.69;45.03;101609.75;5077925;27;45361;-76
2022/03/09 01:15:25;;;;;;;;;43.00;33.00;;;;;5.69;45.41;101612.34;5077189;27;46483;-75
2022/03/09 01:17:51;;;;;;;;;36.00;30.33;;;;;5.73;45.26;101625.47;5077265;27;45296;-75
2022/03/09 01:20:16;;;;;;;;;40.33;32.67;;;;;5.34;45.16;101555.34;5077737;28;45254;-75
2022/03/09 01:22:42;;;;;;;;;47.00;38.00;;;;;5.77;45.20;101631.63;5077601;28;45224;-76
2022/03/09 01:25:08;;;;;;;;;38.33;30.67;;;;;5.76;45.48;101629.84;5077196;28;45355;-75
2022/03/09 01:27:34;;;;;;;;;38.33;33.00;;;;;5.69;45.77;101631.53;5077061;27;45239;-75
2022/03/09 01:29:59;;;;;;;;;39.33;32.33;;;;;5.70;45.93;101630.66;5077274;27;45315;-75
2022/03/09 01:32:25;;;;;;;;;30.33;25.33;;;;;5.62;45.91;101618.38;5077533;27;45390;-75
2022/03/09 01:34:50;;;;;;;;;40.00;32.00;;;;;5.68;45.84;101632.38;5077000;27;47085;-75
2022/03/09 01:37:16;;;;;;;;;37.33;33.00;;;;;5.65;45.96;101636.69;5077278;27;45367;-75
2022/03/09 01:39:42;;;;;;;;;31.00;24.67;;;;;5.58;45.87;101631.41;5077150;27;45649;-76
2022/03/09 01:42:07;;;;;;;;;41.67;32.33;;;;;5.49;45.73;101620.84;5077176;27;45474;-76
2022/03/09 01:44:33;;;;;;;;;39.33;33.67;;;;;5.56;45.76;101629.63;5076930;27;45881;-76
2022/03/09 01:46:58;;;;;;;;;41.67;28.33;;;;;5.56;45.79;101637.44;5076673;27;45386;-75
2022/03/09 01:49:24;;;;;;;;;38.67;31.00;;;;;5.43;46.19;101605.06;5079712;27;45799;-74
2022/03/09 01:51:53;;;;;;;;;36.00;31.33;;;;;5.58;45.90;101635.75;5080601;27;45414;-74
2022/03/09 01:54:19;;;;;;;;;35.00;28.33;;;;;5.54;46.29;101637.44;5080353;27;45351;-75
2022/03/09 01:56:46;;;;;;;;;44.00;34.67;;;;;5.40;46.26;101608.56;5080396;27;45330;-75
2022/03/09 01:59:14;;;;;;;;;41.00;35.00;;;;;5.49;45.91;101633.00;5080459;27;45446;-75
2022/03/09 02:01:41;;;;;;;;;44.00;34.67;;;;;5.37;46.09;101616.34;5080608;27;45390;-75
2022/03/09 02:04:07;;;;;;;;;35.00;27.00;;;;;5.46;46.15;101635.59;5080192;27;45527;-76
2022/03/09 02:06:34;;;;;;;;;37.67;31.00;;;;;5.46;46.08;101639.09;5080058;28;45384;-75
2022/03/09 02:11:44;;;;;;;;;40.33;32.67;;;;;5.35;45.55;101611.97;5080521;28;45324;-75
2022/03/09 02:14:30;;;;;;;;;34.00;28.33;;;;;5.50;45.96;101640.00;5079876;27;46100;-75
2022/03/09 02:16:57;;;;;;;;;38.67;31.00;;;;;5.45;45.93;101633.84;5080023;28;45340;-76
2022/03/09 02:19:23;;;;;;;;;36.00;29.00;;;;;5.40;45.85;101631.16;5078844;28;45419;-75
2022/03/09 02:21:54;;;;;;;;;53.33;34.33;;;;;5.44;45.70;101638.19;5080480;27;45413;-75
2022/03/09 02:24:21;;;;;;;;;36.33;26.33;;;;;5.40;45.90;101636.38;5079820;28;46393;-75
2022/03/09 02:26:48;;;;;;;;;36.33;27.67;;;;;5.35;46.12;101635.47;5079937;28;45270;-75
2022/03/09 02:29:13;;;;;;;;;32.00;23.33;;;;;5.27;46.08;101618.81;5080008;27;45346;-75
2022/03/09 02:31:39;;;;;;;;;40.00;34.33;;;;;5.32;46.01;101628.44;5080004;27;45540;-75
2022/03/09 02:34:04;;;;;;;;;36.67;30.33;;;;;5.37;45.95;101644.19;5080058;27;45570;-75
2022/03/09 02:36:30;;;;;;;;;37.33;29.33;;;;;5.35;46.31;101644.16;5079806;27;45335;-75
2022/03/09 02:38:55;;;;;;;;;38.67;29.67;;;;;5.36;45.86;101642.44;5079879;27;45669;-75
2022/03/09 02:41:20;;;;;;;;;42.33;31.67;;;;;5.01;45.99;101586.28;5079903;27;45496;-76
2022/03/09 02:43:46;;;;;;;;;35.67;31.67;;;;;5.19;46.13;101626.53;5079408;27;46266;-75
2022/03/09 02:46:11;;;;;;;;;32.33;28.00;;;;;5.30;45.99;101634.50;5079768;27;45359;-75
2022/03/09 02:48:36;;;;;;;;;41.33;35.00;;;;;5.16;45.94;101626.50;5079797;27;45309;-75
2022/03/09 02:51:02;;;;;;;;;42.00;37.33;;;;;5.06;46.27;101604.59;5080094;27;45379;-75
2022/03/09 02:53:27;;;;;;;;;42.00;29.67;;;;;5.13;46.49;101623.84;5079391;27;45259;-75
2022/03/09 02:55:52;;;;;;;;;44.00;32.67;;;;;5.25;46.26;101638.81;5079332;27;45354;-75
2022/03/09 02:58:18;;;;;;;;;44.33;35.33;;;;;5.17;46.39;101636.06;5079920;27;45497;-75
2022/03/09 03:00:43;;;;;;;;;37.67;30.33;;;;;5.13;46.47;101632.56;5078298;27;45174;-75
2022/03/09 03:03:08;;;;;;;;;48.00;33.67;;;;;5.09;46.53;101633.34;5079543;27;45286;-76
2022/03/09 03:05:34;;;;;;;;;39.67;33.00;;;;;5.10;46.63;101640.34;5079180;27;45281;-75
2022/03/09 03:07:59;;;;;;;;;38.00;33.67;;;;;5.05;46.83;101623.72;5079399;27;45594;-74
2022/03/09 03:10:24;;;;;;;;;33.00;28.33;;;;;5.02;46.64;101624.56;5079781;27;45329;-76
2022/03/09 03:12:50;;;;;;;;;48.33;37.00;;;;;5.08;47.17;101655.09;5079082;27;46399;-75
2022/03/09 03:15:15;;;;;;;;;34.67;29.00;;;;;4.73;47.09;101598.03;5079399;27;45820;-75
2022/03/09 03:17:40;;;;;;;;;40.33;30.67;;;;;4.94;47.06;101648.78;5079218;27;45431;-75
2022/03/09 03:20:07;;;;;;;;;33.67;32.67;;;;;4.95;47.38;101647.94;5079491;27;45536;-75
2022/03/09 03:22:32;;;;;;;;;34.67;31.67;;;;;4.91;47.62;101646.13;5079150;28;46482;-75
2022/03/09 03:24:57;;;;;;;;;43.67;34.67;;;;;4.91;47.51;101643.53;5078999;27;45434;-75
2022/03/09 03:27:23;;;;;;;;;34.33;29.33;;;;;4.87;47.37;101643.47;5079163;27;45868;-75
2022/03/09 03:29:48;;;;;;;;;39.67;34.00;;;;;4.78;47.38;101630.31;5079296;27;45335;-75
2022/03/09 03:32:13;;;;;;;;;34.33;27.33;;;;;4.87;47.90;101634.78;5078774;27;46646;-75
2022/03/09 03:34:39;;;;;;;;;40.67;31.00;;;;;4.85;47.34;101636.47;5078969;27;45310;-75
2022/03/09 03:37:05;;;;;;;;;33.00;30.67;;;;;4.96;47.21;101655.78;5078901;27;45323;-75
2022/03/09 03:39:31;;;;;;;;;35.33;32.33;;;;;4.85;47.41;101637.38;5079189;27;45389;-75
2022/03/09 03:41:56;;;;;;;;;46.00;33.67;;;;;4.90;47.79;101647.00;5078364;27;45483;-75
2022/03/09 03:44:21;;;;;;;;;42.33;36.33;;;;;4.91;47.53;101656.56;5078530;27;45433;-74
2022/03/09 03:46:47;;;;;;;;;36.67;32.00;;;;;4.85;47.55;101642.59;5078887;27;45372;-74
2022/03/09 03:49:12;;;;;;;;;35.00;30.67;;;;;4.91;47.72;101653.97;5078547;27;45458;-75
2022/03/09 03:51:38;;;;;;;;;38.33;32.33;;;;;4.86;47.59;101649.53;5078630;27;46345;-75
2022/03/09 03:54:03;;;;;;;;;41.00;31.00;;;;;4.80;47.73;101641.63;5078600;27;45329;-75
2022/03/09 03:56:29;;;;;;;;;43.67;32.33;;;;;4.85;47.84;101660.84;5078526;28;45375;-74
2022/03/09 03:58:54;;;;;;;;;43.33;36.67;;;;;4.86;48.01;101659.13;5079042;27;45264;-74
2022/03/09 04:01:20;;;;;;;;;39.00;29.00;;;;;4.74;48.11;101633.72;5078452;27;46534;-75
2022/03/09 04:03:45;;;;;;;;;32.67;29.00;;;;;4.85;47.91;101647.81;5077920;27;45319;-75
2022/03/09 04:06:10;;;;;;;;;39.00;34.00;;;;;4.81;48.20;101643.41;5078344;28;45473;-75
2022/03/09 04:08:36;;;;;;;;;40.33;33.67;;;;;4.82;47.87;101646.88;5069470;28;45281;-75
2022/03/09 04:11:01;;;;;;;;;36.67;31.00;;;;;4.75;47.88;101639.81;5072336;28;46952;-75
2022/03/09 04:13:26;;;;;;;;;37.33;29.00;;;;;4.74;48.10;101645.91;5065891;27;45513;-75
2022/03/09 04:15:52;;;;;;;;;46.67;34.67;;;;;4.62;48.37;101634.41;5062411;28;45312;-76
2022/03/09 04:18:17;;;;;;;;;36.00;30.33;;;;;4.78;48.20;101656.41;5072293;28;45440;-75
2022/03/09 04:20:43;;;;;;;;;34.00;29.00;;;;;4.67;48.06;101651.00;5078323;27;45430;-75
2022/03/09 04:23:10;;;;;;;;;41.33;32.67;;;;;4.70;48.40;101658.00;5078271;27;45338;-75
2022/03/09 04:25:38;;;;;;;;;46.00;32.33;;;;;4.77;48.22;101665.06;5078241;27;45216;-74
2022/03/09 04:28:04;;;;;;;;;44.67;36.67;;;;;4.76;48.16;101665.91;5078182;27;45256;-75
2022/03/09 04:30:30;;;;;;;;;31.67;27.00;;;;;4.65;48.46;101638.81;5077697;28;45203;-75
2022/03/09 04:32:55;;;;;;;;;39.33;32.00;;;;;4.74;48.28;101654.59;5077848;27;45435;-75
2022/03/09 04:35:21;;;;;;;;;42.33;33.67;;;;;4.77;48.06;101658.97;5078397;28;45245;-75
2022/03/09 04:37:47;;;;;;;;;41.67;31.33;;;;;4.72;48.10;101661.53;5078213;27;45394;-75
2022/03/09 04:40:12;;;;;;;;;47.67;35.67;;;;;4.71;48.41;101663.22;5077845;27;46322;-75
2022/03/09 04:42:38;;;;;;;;;48.33;36.00;;;;;4.67;48.14;101653.59;5077267;27;45296;-75
2022/03/09 04:45:04;;;;;;;;;30.67;27.00;;;;;4.74;48.24;101664.16;5077716;27;45949;-75
2022/03/09 04:47:30;;;;;;;;;39.67;32.67;;;;;4.75;48.50;101672.00;5077629;27;45294;-75
2022/03/09 04:49:55;;;;;;;;;34.00;33.33;;;;;4.69;48.22;101662.34;5077570;27;45974;-76
2022/03/09 04:52:21;;;;;;;;;41.00;28.00;;;;;4.69;48.21;101667.56;5077941;27;45323;-75
2022/03/09 04:54:47;;;;;;;;;44.67;28.00;;;;;4.61;48.54;101644.81;5077788;27;45414;-75
2022/03/09 04:57:12;;;;;;;;;34.00;29.67;;;;;4.68;48.53;101665.78;5077851;27;45438;-75
2022/03/09 04:59:37;;;;;;;;;36.67;32.00;;;;;4.70;48.52;101677.16;5077614;28;46525;-75
2022/03/09 05:02:03;;;;;;;;;45.67;37.00;;;;;4.73;48.52;101683.25;5077276;28;45279;-75
2022/03/09 05:04:28;;;;;;;;;42.00;31.33;;;;;4.50;48.65;101645.53;5077218;27;45409;-75
2022/03/09 05:06:55;;;;;;;;;40.33;30.00;;;;;4.61;48.34;101660.47;5077356;27;45824;-75
2022/03/09 05:09:20;;;;;;;;;32.00;25.67;;;;;4.67;48.68;101689.25;5077333;28;45510;-75
2022/03/09 05:11:46;;;;;;;;;37.67;36.33;;;;;4.63;48.73;101672.69;5077550;27;45441;-75
2022/03/09 05:14:11;;;;;;;;;33.67;25.67;;;;;4.67;48.56;101681.44;5077408;27;45328;-74
2022/03/09 05:16:37;;;;;;;;;35.00;26.00;;;;;4.60;48.51;101676.97;5077761;28;45340;-74
2022/03/09 05:19:02;;;;;;;;;44.00;31.67;;;;;4.57;48.80;101674.31;5077123;27;45761;-74
2022/03/09 05:21:27;;;;;;;;;39.67;31.00;;;;;4.66;48.51;101688.38;5076876;28;45428;-74
2022/03/09 05:23:53;;;;;;;;;38.67;32.67;;;;;4.55;48.87;101666.47;5079550;28;45744;-74
2022/03/09 05:26:18;;;;;;;;;53.00;38.67;;;;;4.52;49.40;101659.44;5080791;28;45432;-74
2022/03/09 05:28:43;;;;;;;;;39.67;34.00;;;;;4.30;49.24;101629.53;5080348;28;45775;-78
2022/03/09 05:31:09;;;;;;;;;43.67;33.00;;;;;4.55;48.93;101673.41;5078996;28;45395;-78
2022/03/09 05:33:34;;;;;;;;;45.33;38.00;;;;;4.56;49.08;101673.44;5080385;28;45451;-72
2022/03/09 05:36:00;;;;;;;;;42.67;34.33;;;;;4.53;49.44;101681.19;5080702;27;45374;-72
2022/03/09 05:38:25;;;;;;;;;36.33;31.33;;;;;4.45;49.73;101670.63;5080150;27;46296;-72
2022/03/09 05:40:50;;;;;;;;;30.00;24.33;;;;;4.54;49.98;101682.94;5064497;27;45459;-77
2022/03/09 05:43:16;;;;;;;;;40.67;32.33;;;;;4.32;49.90;101648.66;5079835;28;45325;-76
2022/03/09 05:45:41;;;;;;;;;45.00;33.33;;;;;4.46;50.13;101679.31;5080738;27;45298;-78
2022/03/09 05:48:06;;;;;;;;;34.00;27.33;;;;;4.51;49.93;101677.69;5080037;27;47102;-72
2022/03/09 05:50:32;;;;;;;;;30.67;23.00;;;;;4.45;50.07;101673.22;5080449;27;45374;-79
2022/03/09 05:52:57;;;;;;;;;45.00;31.33;;;;;4.40;49.74;101672.28;5080410;28;45791;-73
2022/03/09 05:55:23;;;;;;;;;42.33;35.33;;;;;4.38;50.14;101662.69;5080324;27;45314;-74
2022/03/09 05:57:48;;;;;;;;;42.00;30.67;;;;;4.41;50.07;101667.94;5079566;27;46343;-80
2022/03/09 06:00:14;;;;;;;;;43.00;35.00;;;;;4.50;50.24;101691.56;5080004;28;45401;-71
2022/03/09 06:02:40;;;;;;;;;37.33;28.67;;;;;4.30;50.61;101665.16;5066975;27;45455;-70
2022/03/09 06:05:06;;;;;;;;;53.67;39.33;;;;;4.45;50.65;101694.09;5069705;28;45469;-69
2022/03/09 06:07:32;;;;;;;;;34.67;30.00;;;;;4.43;50.35;101680.16;5059267;28;45416;-74
2022/03/09 06:09:58;;;;;;;;;41.33;36.00;;;;;4.48;50.30;101691.53;5069024;28;45347;-74
2022/03/09 06:12:23;;;;;;;;;37.67;35.00;;;;;4.49;50.43;101697.66;5079996;27;45410;-74
2022/03/09 06:14:49;;;;;;;;;35.67;27.33;;;;;4.50;50.11;101700.28;5080404;27;45426;-73
2022/03/09 06:17:14;;;;;;;;;42.33;34.00;;;;;4.32;50.90;101664.31;5080245;27;45440;-74
2022/03/09 06:19:40;;;;;;;;;38.67;31.00;;;;;4.50;50.33;101687.25;5078980;28;45315;-73
2022/03/09 06:22:05;;;;;;;;;45.33;34.67;;;;;4.53;50.66;101705.53;5079744;27;45485;-73
2022/03/09 06:24:30;;;;;;;;;45.00;32.67;;;;;4.10;51.29;101623.09;5080219;27;45249;-73
2022/03/09 06:26:56;;;;;;;;;37.67;31.00;;;;;4.52;50.53;101701.19;5079539;28;46623;-73
2022/03/09 06:29:21;;;;;;;;;42.00;32.00;;;;;4.56;50.69;101709.03;5079767;27;45478;-73
2022/03/09 06:31:47;;;;;;;;;45.00;33.00;;;;;4.57;50.88;101705.59;5079594;27;45522;-75
2022/03/09 06:34:12;;;;;;;;;44.00;36.00;;;;;4.61;50.85;101705.66;5079864;27;45351;-75
2022/03/09 06:36:43;;;;;;;;;45.67;36.33;;;;;4.61;50.91;101699.59;5079315;28;45660;-75
2022/03/09 06:39:15;;;;;;;;;39.33;31.67;;;;;4.62;50.59;101704.84;5079365;27;45309;-74
2022/03/09 06:41:43;;;;;;;;;37.67;34.67;;;;;4.68;50.50;101712.75;5079547;27;45306;-75
2022/03/09 06:44:09;;;;;;;;;42.33;36.33;;;;;4.68;50.22;101702.31;5080723;28;45343;-75
2022/03/09 06:46:34;;;;;;;;;44.33;37.33;;;;;4.74;50.89;101704.16;5079544;28;45732;-74
2022/03/09 06:49:00;;;;;;;;;43.00;37.33;;;;;4.80;50.12;101700.78;5079627;28;45454;-74
2022/03/09 06:51:25;;;;;;;;;49.33;33.67;;;;;4.81;50.56;101697.31;5093223;27;45484;-75
2022/03/09 06:53:50;;;;;;;;;49.33;37.33;;;;;4.57;50.22;101645.63;5100580;27;45292;-76
2022/03/09 06:56:18;;;;;;;;;52.00;40.00;;;;;4.98;50.27;101710.63;5099947;27;46298;-76
2022/03/09 06:58:44;;;;;;;;;48.67;36.33;;;;;4.97;50.63;101714.97;5099924;27;45232;-76
2022/03/09 07:01:09;;;;;;;;;48.00;39.67;;;;;4.93;50.96;101707.06;5080149;27;45402;-76
2022/03/09 07:03:34;;;;;;;;;45.00;36.00;;;;;5.00;50.27;101714.16;5079904;27;45412;-76
2022/03/09 07:06:00;;;;;;;;;46.67;32.33;;;;;4.96;50.52;101710.59;5079333;28;46265;-77
2022/03/09 07:08:25;;;;;;;;;41.00;33.00;;;;;5.03;50.73;101719.41;5079036;28;45289;-76
2022/03/09 07:10:50;;;;;;;;;50.33;39.33;;;;;4.97;50.63;101704.53;5079091;27;45348;-76
2022/03/09 07:13:16;;;;;;;;;52.67;39.00;;;;;5.15;50.19;101735.25;5079111;27;45181;-76
2022/03/09 07:15:41;;;;;;;;;53.00;36.00;;;;;5.48;49.96;101720.94;5079079;27;46262;-75
2022/03/09 07:18:07;;;;;;;;;50.67;38.00;;;;;5.54;49.63;101728.88;5079242;27;45371;-76
2022/03/09 07:20:32;;;;;;;;;46.67;36.33;;;;;5.52;49.33;101693.16;5079148;27;45260;-77
2022/03/09 07:22:58;;;;;;;;;43.67;37.33;;;;;6.11;48.56;101726.13;5079188;27;45225;-76
2022/03/09 07:25:23;;;;;;;;;43.00;32.00;;;;;6.05;48.41;101718.22;5078960;27;45376;-76
2022/03/09 07:27:48;;;;;;;;;39.33;35.00;;;;;6.22;48.36;101737.59;5078550;27;45495;-75
2022/03/09 07:30:14;;;;;;;;;38.33;35.33;;;;;6.18;48.39;101729.69;5078500;27;45634;-75
2022/03/09 07:32:40;;;;;;;;;39.33;34.67;;;;;6.47;48.17;101723.91;5079068;27;45359;-76
2022/03/09 07:35:07;;;;;;;;;43.00;38.00;;;;;7.05;47.37;101747.09;5078836;27;45438;-75
2022/03/09 07:37:32;;;;;;;;;46.00;35.33;;;;;7.13;46.75;101735.81;5078910;27;45305;-75
2022/03/09 07:39:57;;;;;;;;;42.67;36.00;;;;;7.56;46.12;101743.06;5078721;27;45751;-76
2022/03/09 07:42:23;;;;;;;;;48.00;37.67;;;;;7.22;46.28;101729.78;5079212;28;45344;-75
2022/03/09 07:44:48;;;;;;;;;47.00;41.00;;;;;6.75;46.79;101696.22;5077993;27;46375;-75
2022/03/09 07:47:14;;;;;;;;;53.67;43.33;;;;;6.97;47.29;101744.41;5077783;27;45328;-75
2022/03/09 07:49:39;;;;;;;;;49.67;41.33;;;;;7.18;47.11;101746.31;5078452;27;45469;-74
2022/03/09 07:52:06;;;;;;;;;40.67;36.33;;;;;7.75;46.22;101740.56;5078918;27;45342;-75
2022/03/09 07:54:31;;;;;;;;;43.67;36.67;;;;;7.68;45.82;101747.50;5078492;27;46708;-75
2022/03/09 07:56:57;;;;;;;;;44.67;35.00;;;;;7.44;46.00;101745.63;5078235;27;45315;-75
2022/03/09 07:59:22;;;;;;;;;43.33;36.00;;;;;7.42;46.56;101756.13;5078024;27;45466;-74
2022/03/09 08:01:52;;;;;;;;;41.33;34.67;;;;;7.40;46.54;101747.34;5078798;27;45281;-75
2022/03/09 08:04:19;;;;;;;;;54.33;39.00;;;;;7.15;46.41;101704.41;5078213;27;47197;-74
2022/03/09 08:06:49;;;;;;;;;38.00;31.67;;;;;7.37;46.99;101757.81;5078350;27;45249;-75
2022/03/09 08:09:15;;;;;;;;;29.67;27.67;;;;;7.31;46.93;101744.69;5077860;27;45496;-75
2022/03/09 08:11:41;;;;;;;;;49.67;35.00;;;;;7.83;46.92;101749.34;5078310;27;45324;-75
2022/03/09 08:14:07;;;;;;;;;52.33;40.67;;;;;8.42;45.75;101750.41;5078136;27;47280;-75
2022/03/09 08:16:32;;;;;;;;;54.67;39.67;;;;;8.34;46.01;101753.03;5077740;27;45510;-75
2022/03/09 08:18:58;;;;;;;;;47.33;35.00;;;;;8.62;45.85;101749.63;5078213;27;45379;-76
2022/03/09 08:21:23;;;;;;;;;56.67;42.67;;;;;10.03;43.73;101748.53;5078551;27;45305;-76
2022/03/09 08:23:48;;;;;;;;;45.67;36.67;;;;;10.79;42.64;101714.78;5078073;27;45434;-76
2022/03/09 08:26:15;;;;;;;;;51.67;37.00;;;;;11.66;41.67;101738.53;5077571;27;45372;-76
2022/03/09 08:28:40;;;;;;;;;53.67;39.33;;;;;11.65;39.72;101731.50;5077869;27;45222;-76
2022/03/09 08:31:05;;;;;;;;;42.67;33.00;;;;;11.96;40.96;101740.88;5077805;27;45542;-76
2022/03/09 08:33:31;;;;;;;;;44.00;35.67;;;;;11.91;40.14;101735.63;5077174;28;46351;-76
2022/03/09 08:35:56;;;;;;;;;50.33;38.00;;;;;12.17;39.77;101758.22;5078006;28;45376;-76
2022/03/09 08:38:22;;;;;;;;;50.00;38.00;;;;;13.26;38.40;101753.00;5077511;27;45418;-76
2022/03/09 08:40:47;;;;;;;;;49.67;38.00;;;;;14.28;37.11;101743.94;5078108;27;45451;-75
2022/03/09 08:43:12;;;;;;;;;50.00;37.33;;;;;14.61;35.16;101751.16;5076894;27;45404;-76
2022/03/09 08:45:38;;;;;;;;;47.00;37.00;;;;;13.72;37.35;101756.59;5077596;27;45407;-76
2022/03/09 08:48:05;;;;;;;;;47.67;34.67;;;;;12.89;38.59;101748.34;5077665;28;45305;-76
2022/03/09 08:50:30;;;;;;;;;43.67;35.67;;;;;12.20;38.89;101758.16;5078022;27;45387;-76
2022/03/09 08:52:56;;;;;;;;;43.00;35.00;;;;;11.73;39.24;101762.22;5077370;27;46396;-76
2022/03/09 08:55:22;;;;;;;;;50.00;37.00;;;;;11.88;39.92;101758.50;5077633;27;45331;-76
2022/03/09 08:57:47;;;;;;;;;39.33;32.67;;;;;13.02;38.52;101760.44;5077803;27;45574;-76
2022/03/09 09:00:13;;;;;;;;;43.67;35.33;;;;;13.67;37.77;101758.47;5077658;27;45386;-75
2022/03/09 09:02:38;;;;;;;;;52.67;39.33;;;;;13.80;37.34;101757.31;5077433;27;46688;-76
2022/03/09 09:05:04;;;;;;;;;47.67;37.67;;;;;14.43;36.03;101755.97;5076162;28;45584;-76
2022/03/09 09:07:30;;;;;;;;;38.33;31.33;;;;;14.51;36.39;101721.34;5077154;27;45303;-73
2022/03/09 09:09:55;;;;;;;;;44.33;37.67;;;;;15.25;36.03;101769.94;5077854;27;45312;-74
2022/03/09 09:12:21;;;;;;;;;42.33;33.33;;;;;15.18;35.94;101755.09;5076864;27;45516;-75
2022/03/09 09:14:46;;;;;;;;;37.33;34.33;;;;;14.65;37.13;101744.91;5075782;27;45885;-73
2022/03/09 09:17:12;;;;;;;;;39.00;32.33;;;;;14.05;37.50;101754.16;5077387;27;45300;-74
2022/03/09 09:19:37;;;;;;;;;47.33;37.00;;;;;14.05;37.56;101748.88;5077209;27;45292;-75
2022/03/09 09:22:03;;;;;;;;;47.00;37.67;;;;;14.34;36.87;101750.88;5077042;28;47381;-75
2022/03/09 09:24:29;;;;;;;;;45.33;37.00;;;;;14.36;37.25;101750.84;5077018;27;45436;-74
2022/03/09 09:26:55;;;;;;;;;43.33;37.67;;;;;14.21;37.29;101733.53;5076595;27;45542;-77
2022/03/09 09:29:20;;;;;;;;;46.00;37.00;;;;;14.22;37.79;101751.16;5077197;27;45467;-75
2022/03/09 09:31:47;;;;;;;;;46.33;35.67;;;;;14.70;37.88;101748.31;5076718;27;45943;-76
2022/03/09 09:34:12;;;;;;;;;44.67;34.00;;;;;15.22;36.71;101761.19;5076631;27;45489;-76
2022/03/09 09:36:41;;;;;;;;;43.67;37.00;;;;;15.62;36.54;101754.81;5076236;27;45484;-74
2022/03/09 09:39:06;;;;;;;;;47.00;35.00;;;;;16.12;35.84;101762.28;5076607;27;45484;-76
2022/03/09 09:41:33;;;;;;;;;46.33;36.67;;;;;16.26;36.04;101762.72;5072601;28;45629;-76
2022/03/09 09:44:00;;;;;;;;;51.00;35.00;;;;;15.98;35.90;101747.63;5076340;27;45418;-76
2022/03/09 09:46:25;;;;;;;;;45.67;35.67;;;;;15.93;36.37;101754.88;5076939;28;45442;-76
2022/03/09 09:48:50;;;;;;;;;44.33;35.33;;;;;16.44;35.77;101765.75;5076974;27;45307;-75
2022/03/09 09:51:17;;;;;;;;;42.33;34.33;;;;;16.93;35.00;101750.03;5076697;28;45356;-76
2022/03/09 09:53:44;;;;;;;;;45.00;36.00;;;;;16.88;34.77;101766.16;5076117;27;45432;-74
2022/03/09 09:56:09;;;;;;;;;45.67;37.33;;;;;16.86;34.83;101770.63;5068760;27;45984;-76
2022/03/09 09:58:37;;;;;;;;;41.67;34.33;;;;;17.21;33.30;101757.97;5075612;27;45438;-74
2022/03/09 10:01:03;;;;;;;;;56.33;42.33;;;;;17.26;33.65;101747.16;5074930;27;47051;-74
2022/03/09 10:03:28;;;;;;;;;45.67;36.67;;;;;16.95;35.13;101757.06;5074298;27;45467;-74
2022/03/09 10:05:54;;;;;;;;;45.33;38.67;;;;;16.53;34.48;101757.50;5075221;27;45672;-74
2022/03/09 10:08:19;;;;;;;;;48.67;39.33;;;;;16.21;36.41;101767.34;5075438;28;45440;-76
2022/03/09 10:10:57;;;;;;;;;44.67;36.33;;;;;16.11;36.08;101766.72;5078066;27;46598;-75
2022/03/09 10:13:24;;;;;;;;;38.67;32.33;;;;;16.53;36.31;101773.44;5079091;27;45416;-73
2022/03/09 10:16:13;;;;;;;;;50.33;37.33;;;;;17.07;35.12;101769.09;5078820;27;45573;-75
2022/03/09 10:18:39;;;;;;;;;43.33;35.00;;;;;18.13;34.97;101763.59;5079069;27;45375;-74
2022/03/09 10:21:17;;;;;;;;;51.67;39.67;;;;;19.36;32.13;101755.03;5078167;27;46269;-73
2022/03/09 10:23:54;;;;;;;;;39.67;31.00;;;;;20.30;31.83;101758.84;5077992;28;45363;-74
2022/03/09 10:26:26;;;;;;;;;45.00;36.00;;;;;21.01;29.40;101742.03;5078318;27;45675;-73
2022/03/09 10:28:57;;;;;;;;;39.00;31.67;;;;;21.91;30.33;101749.84;5078578;27;45562;-73
2022/03/09 10:31:36;;;;;;;;;34.33;30.33;;;;;22.35;30.01;101748.34;5079617;27;46080;-72
2022/03/09 10:34:05;;;;;;;;;30.67;27.33;;;;;22.48;29.18;101745.84;5079859;28;45321;-72
2022/03/09 10:36:30;;;;;;;;;36.67;31.00;;;;;22.44;29.15;101733.53;5079849;27;45355;-72
2022/03/09 10:39:13;;;;;;;;;43.33;33.67;;;;;22.22;29.15;101733.84;5080061;28;45339;-72
2022/03/09 10:41:38;;;;;;;;;37.67;34.00;;;;;22.09;28.53;101739.91;5079775;27;46455;-72
2022/03/09 10:44:04;;;;;;;;;42.33;34.00;;;;;21.67;29.64;101748.50;5079341;28;45293;-72
2022/03/09 10:46:41;;;;;;;;;38.67;31.33;;;;;20.84;30.11;101733.06;5079691;27;45307;-73
2022/03/09 10:49:07;;;;;;;;;34.67;32.00;;;;;20.46;30.71;101753.63;5080093;27;45313;-74
2022/03/09 10:51:37;;;;;;;;;34.67;32.33;;;;;20.01;31.79;101758.41;5079352;27;46498;-74
2022/03/09 10:54:09;;;;;;;;;36.00;30.33;;;;;19.45;32.57;101757.34;5079354;27;45375;-73
2022/03/09 10:56:36;;;;;;;;;38.00;30.33;;;;;18.84;33.53;101739.44;5079620;27;45281;-73
2022/03/09 10:59:25;;;;;;;;;33.33;29.67;;;;;18.56;34.26;101762.78;5079698;27;45640;-74
2022/03/09 11:02:07;;;;;;;;;30.33;28.00;;;;;18.22;34.81;101766.75;5079167;27;45244;-73
2022/03/09 11:04:34;;;;;;;;;32.00;28.33;;;;;17.92;35.23;101761.66;5079119;27;45348;-73
2022/03/09 11:06:59;;;;;;;;;35.00;30.00;;;;;17.65;35.71;101760.84;5079174;27;45401;-73
2022/03/09 11:09:25;;;;;;;;;30.33;26.33;;;;;17.40;36.12;101767.06;5079769;27;45208;-73
2022/03/09 11:11:51;;;;;;;;;33.00;29.67;;;;;17.08;36.45;101768.16;5079187;27;46359;-73